createdAt,value
2019-05-14T00:00:59.198Z,1.43
2019-05-14T00:03:27.379Z,1.30
2019-05-14T00:05:55.693Z,1.40
2019-05-14T00:08:23.909Z,1.80
2019-05-14T00:10:52.294Z,1.80
2019-05-14T00:13:21.506Z,2.10
2019-05-14T00:15:51.942Z,1.50
2019-05-14T00:18:22.212Z,1.30
2019-05-14T00:20:51.197Z,1.47
2019-05-14T00:23:21.545Z,1.80
2019-05-14T00:25:49.523Z,1.80
2019-05-14T00:28:17.793Z,1.50
2019-05-14T00:30:46.039Z,1.67
2019-05-14T00:33:14.293Z,1.67
2019-05-14T00:35:42.605Z,1.80
2019-05-14T00:38:31.501Z,1.70
2019-05-14T00:41:01.915Z,1.73
2019-05-14T00:43:32.063Z,1.67
2019-05-14T00:46:01.671Z,1.70
2019-05-14T00:48:31.763Z,1.50
2019-05-14T00:51:01.967Z,2.00
2019-05-14T00:53:31.811Z,1.80
2019-05-14T00:56:01.903Z,1.60
2019-05-14T00:58:31.026Z,1.70
2019-05-14T01:01:01.458Z,1.70
2019-05-14T01:03:29.236Z,1.90
2019-05-14T01:05:57.494Z,1.70
2019-05-14T01:08:25.747Z,1.70
2019-05-14T01:10:54.051Z,1.60
2019-05-14T01:13:22.291Z,1.63
2019-05-14T01:16:11.837Z,1.50
2019-05-14T01:18:41.482Z,1.67
2019-05-14T01:21:11.667Z,1.53
2019-05-14T01:23:41.554Z,1.70
2019-05-14T01:26:11.522Z,1.80
2019-05-14T01:28:41.506Z,2.00
2019-05-14T01:31:11.412Z,1.60
2019-05-14T01:33:41.044Z,1.53
2019-05-14T01:36:09.439Z,1.80
2019-05-14T01:38:37.573Z,2.03
2019-05-14T01:41:05.847Z,1.70
2019-05-14T01:43:34.066Z,1.80
2019-05-14T01:46:02.342Z,1.70
2019-05-14T01:48:31.309Z,1.70
2019-05-14T01:51:01.491Z,1.80
2019-05-14T01:53:31.252Z,2.00
2019-05-14T01:56:01.574Z,1.80
2019-05-14T01:58:31.103Z,1.70
2019-05-14T02:01:01.758Z,1.77
2019-05-14T02:03:29.464Z,2.00
2019-05-14T02:05:57.695Z,1.70
2019-05-14T02:08:25.934Z,2.13
2019-05-14T02:10:54.181Z,1.90
2019-05-14T02:13:22.398Z,1.70
2019-05-14T02:15:52.008Z,1.80
2019-05-14T02:18:21.773Z,2.00
2019-05-14T02:20:52.036Z,1.97
2019-05-14T02:23:22.469Z,1.90
2019-05-14T02:25:51.824Z,1.80
2019-05-14T02:28:21.974Z,2.00
2019-05-14T02:30:57.628Z,2.27
2019-05-14T02:33:19.531Z,2.07
2019-05-14T02:35:49.431Z,2.00
2019-05-14T02:38:19.420Z,2.20
2019-05-14T02:40:49.416Z,1.73
2019-05-14T02:43:20.021Z,2.10
2019-05-14T02:46:01.939Z,1.87
2019-05-14T02:48:20.196Z,2.30
2019-05-14T02:50:49.459Z,1.87
2019-05-14T02:53:19.769Z,1.90
2019-05-14T02:55:49.543Z,1.73
2019-05-14T02:58:20.752Z,1.80
2019-05-14T03:00:49.189Z,1.87
2019-05-14T03:03:19.255Z,2.00
2019-05-14T03:05:49.457Z,2.03
2019-05-14T03:08:19.518Z,2.23
2019-05-14T03:10:49.824Z,2.07
2019-05-14T03:13:16.466Z,2.20
2019-05-14T03:15:44.680Z,2.37
2019-05-14T03:18:12.922Z,2.27
2019-05-14T03:20:41.226Z,2.20
2019-05-14T03:23:15.643Z,2.03
2019-05-14T03:25:39.966Z,2.20
2019-05-14T03:28:09.285Z,2.10
2019-05-14T03:30:42.434Z,2.20
2019-05-14T03:33:12.992Z,2.10
2019-05-14T03:35:44.299Z,2.10
2019-05-14T03:38:09.384Z,2.40
2019-05-14T03:40:39.739Z,2.23
2019-05-14T03:43:09.016Z,2.33
2019-05-14T03:45:39.156Z,2.50
2019-05-14T03:48:10.398Z,2.40
2019-05-14T03:50:38.965Z,2.50
2019-05-14T03:53:10.077Z,2.30
2019-05-14T03:55:40.312Z,2.60
2019-05-14T03:58:09.919Z,2.30
2019-05-14T04:03:39.626Z,2.40
2019-05-14T04:06:09.822Z,2.60
2019-05-14T04:09:01.860Z,2.37
2019-05-14T04:11:31.849Z,2.80
2019-05-14T04:14:01.234Z,2.60
2019-05-14T04:16:31.254Z,2.60
2019-05-14T04:19:01.021Z,2.80
2019-05-14T04:21:30.868Z,2.70
2019-05-14T04:24:00.936Z,2.90
2019-05-14T04:26:30.411Z,2.73
2019-05-14T04:29:00.561Z,2.50
2019-05-14T04:31:30.469Z,2.77
2019-05-14T04:34:00.229Z,3.13
2019-05-14T04:36:29.929Z,3.10
2019-05-14T04:39:00.593Z,3.20
2019-05-14T04:41:29.845Z,2.93
2019-05-14T04:43:59.477Z,2.73
2019-05-14T04:46:30.341Z,3.27
2019-05-14T04:48:59.136Z,3.47
2019-05-14T04:51:30.228Z,3.10
2019-05-14T04:53:59.798Z,2.90
2019-05-14T04:56:30.203Z,3.00
2019-05-14T04:59:19.167Z,2.90
2019-05-14T05:01:49.350Z,2.57
2019-05-14T05:04:20.001Z,3.00
2019-05-14T05:06:49.650Z,2.77
2019-05-14T05:09:19.777Z,2.83
2019-05-14T05:11:49.522Z,2.90
2019-05-14T05:14:18.971Z,3.03
2019-05-14T05:16:48.814Z,3.27
2019-05-14T05:19:16.119Z,2.80
2019-05-14T05:21:44.363Z,2.70
2019-05-14T05:24:12.587Z,2.93
2019-05-14T05:26:40.757Z,2.43
2019-05-14T05:29:10.504Z,2.57
2019-05-14T05:31:38.937Z,2.47
2019-05-14T05:34:08.951Z,2.50
2019-05-14T05:36:38.032Z,2.87
2019-05-14T05:39:08.587Z,2.30
2019-05-14T05:41:38.451Z,2.43
2019-05-14T05:44:08.185Z,2.67
2019-05-14T05:46:38.848Z,3.10
2019-05-14T05:49:08.051Z,2.40
2019-05-14T05:51:39.066Z,2.33
2019-05-14T05:54:06.407Z,2.33
2019-05-14T05:56:34.663Z,2.43
2019-05-14T05:59:02.895Z,2.27
2019-05-14T06:01:41.698Z,2.60
2019-05-14T06:04:01.027Z,2.20
2019-05-14T06:06:29.274Z,2.50
2019-05-14T06:08:58.375Z,2.57
2019-05-14T06:11:28.877Z,2.30
2019-05-14T06:13:58.705Z,2.50
2019-05-14T06:16:28.841Z,2.50
2019-05-14T06:18:58.627Z,2.17
2019-05-14T06:21:26.249Z,2.20
2019-05-14T06:23:58.158Z,2.30
2019-05-14T06:26:24.341Z,2.20
2019-05-14T06:28:52.567Z,2.13
2019-05-14T06:31:20.841Z,2.40
2019-05-14T06:33:49.164Z,2.50
2019-05-14T06:36:19.484Z,2.27
2019-05-14T06:38:49.350Z,2.30
2019-05-14T06:41:19.129Z,2.00
2019-05-14T06:43:48.623Z,2.03
2019-05-14T06:46:19.303Z,1.77
2019-05-14T06:48:48.655Z,1.90
2019-05-14T06:51:19.551Z,1.80
2019-05-14T06:53:49.572Z,2.00
2019-05-14T06:56:19.002Z,1.90
2019-05-14T06:58:48.869Z,1.90
2019-05-14T07:01:18.576Z,1.50
2019-05-14T07:03:48.706Z,1.93
2019-05-14T07:06:18.668Z,1.80
2019-05-14T07:08:48.659Z,1.90
2019-05-14T07:11:16.154Z,2.00
2019-05-14T07:13:44.415Z,1.73
2019-05-14T07:16:12.682Z,1.80
2019-05-14T07:18:52.863Z,1.80
2019-05-14T07:21:10.835Z,1.83
2019-05-14T07:23:39.073Z,1.43
2019-05-14T07:26:08.361Z,1.83
2019-05-14T07:28:41.956Z,1.77
2019-05-14T07:31:09.506Z,1.90
2019-05-14T07:33:38.840Z,1.63
2019-05-14T07:36:08.826Z,1.73
2019-05-14T07:38:39.234Z,1.67
2019-05-14T07:41:09.253Z,1.50
2019-05-14T07:43:39.097Z,1.50
2019-05-14T07:46:08.495Z,1.37
2019-05-14T07:48:38.965Z,1.20
2019-05-14T07:51:08.884Z,1.37
2019-05-14T07:53:41.714Z,1.40
2019-05-14T07:56:06.236Z,1.30
2019-05-14T07:58:34.457Z,1.60
2019-05-14T08:01:02.603Z,1.10
2019-05-14T08:03:30.759Z,1.10
2019-05-14T08:06:19.787Z,1.13
2019-05-14T08:08:49.217Z,1.27
2019-05-14T08:11:19.091Z,1.30
2019-05-14T08:13:49.342Z,1.40
2019-05-14T08:16:18.679Z,1.27
2019-05-14T08:18:48.711Z,1.27
2019-05-14T08:21:19.420Z,1.20
2019-05-14T08:23:48.072Z,1.50
2019-05-14T08:26:18.781Z,1.90
2019-05-14T08:28:48.656Z,1.80
2019-05-14T08:31:18.561Z,1.80
2019-05-14T08:33:48.527Z,2.00
2019-05-14T08:36:18.432Z,2.23
2019-05-14T08:38:47.444Z,2.30
2019-05-14T08:41:16.311Z,2.40
2019-05-14T08:43:44.588Z,1.90
2019-05-14T08:46:12.825Z,2.13
2019-05-14T08:48:41.060Z,2.40
2019-05-14T08:51:29.569Z,2.20
2019-05-14T08:53:59.287Z,2.27
2019-05-14T08:56:28.174Z,2.30
2019-05-14T08:58:58.888Z,2.30
2019-05-14T09:01:29.077Z,2.33
2019-05-14T09:03:56.253Z,2.33
2019-05-14T09:06:24.473Z,1.73
2019-05-14T09:08:52.737Z,1.83
2019-05-14T09:11:24.914Z,1.80
2019-05-14T09:13:50.898Z,2.00
2019-05-14T09:16:19.592Z,1.60
2019-05-14T09:18:49.083Z,1.50
2019-05-14T09:21:20.209Z,1.67
2019-05-14T09:23:48.245Z,1.30
2019-05-14T09:26:18.137Z,1.27
2019-05-14T09:28:48.342Z,1.50
2019-05-14T09:31:19.076Z,1.37
2019-05-14T09:33:49.228Z,1.27
2019-05-14T09:36:22.610Z,1.20
2019-05-14T09:38:48.916Z,1.70
2019-05-14T09:41:18.371Z,1.40
2019-05-14T09:43:48.374Z,1.40
2019-05-14T09:46:18.307Z,1.50
2019-05-14T09:48:45.789Z,1.40
2019-05-14T09:51:14.021Z,1.30
2019-05-14T09:53:42.255Z,1.27
2019-05-14T09:56:10.497Z,1.10
2019-05-14T09:58:58.651Z,1.20
2019-05-14T10:01:27.182Z,1.00
2019-05-14T10:03:55.417Z,1.00
2019-05-14T10:06:23.643Z,1.10
2019-05-14T10:08:51.983Z,1.20
2019-05-14T10:11:20.270Z,1.30
2019-05-14T10:13:48.593Z,0.90
2019-05-14T10:16:18.962Z,1.50
2019-05-14T10:18:49.045Z,1.73
2019-05-14T10:21:18.923Z,1.30
2019-05-14T10:23:46.563Z,1.07
2019-05-14T10:26:14.815Z,1.07
2019-05-14T10:28:43.545Z,1.13
2019-05-14T10:31:13.461Z,1.40
2019-05-14T10:33:41.831Z,1.30
2019-05-14T10:36:10.077Z,1.47
2019-05-14T10:38:38.718Z,1.57
2019-05-14T10:41:09.064Z,1.23
2019-05-14T10:43:39.122Z,1.40
2019-05-14T10:46:09.048Z,1.70
2019-05-14T10:48:39.345Z,1.43
2019-05-14T10:51:06.868Z,1.60
2019-05-14T10:53:35.082Z,1.20
2019-05-14T10:56:03.312Z,1.27
2019-05-14T10:58:31.463Z,1.40
2019-05-14T11:00:59.704Z,1.20
2019-05-14T11:03:30.122Z,1.30
2019-05-14T11:05:58.762Z,1.30
2019-05-14T11:08:29.383Z,1.40
2019-05-14T11:11:03.214Z,1.60
2019-05-14T11:13:29.241Z,1.60
2019-05-14T11:15:59.287Z,1.30
2019-05-14T11:18:29.168Z,1.20
2019-05-14T11:21:17.462Z,1.17
2019-05-14T11:23:29.399Z,1.23
2019-05-14T11:25:58.162Z,1.20
2019-05-14T11:28:28.353Z,1.30
2019-05-14T11:30:56.239Z,1.10
2019-05-14T11:33:24.444Z,0.93
2019-05-14T11:35:52.655Z,1.10
2019-05-14T11:38:32.299Z,1.20
2019-05-14T11:40:50.933Z,1.40
2019-05-14T11:43:19.673Z,1.37
2019-05-14T11:45:48.523Z,1.43
2019-05-14T11:48:19.343Z,1.90
2019-05-14T11:50:49.135Z,1.87
2019-05-14T11:53:20.080Z,1.50
2019-05-14T11:55:49.788Z,1.60
2019-05-14T11:58:21.045Z,1.57
2019-05-14T12:00:46.974Z,1.60
2019-05-14T12:03:15.261Z,1.60
2019-05-14T12:05:43.409Z,2.10
2019-05-14T12:08:11.647Z,1.80
2019-05-14T12:10:39.865Z,2.27
2019-05-14T12:13:08.658Z,2.87
2019-05-14T12:15:38.834Z,2.17
2019-05-14T12:18:10.074Z,1.80
2019-05-14T12:20:39.536Z,1.60
2019-05-14T12:23:08.912Z,1.37
2019-05-14T12:25:36.463Z,1.70
2019-05-14T12:28:04.698Z,1.80
2019-05-14T12:30:32.906Z,1.70
2019-05-14T12:33:01.067Z,1.70
2019-05-14T12:35:29.486Z,1.90
2019-05-14T12:37:58.596Z,1.60
2019-05-14T12:40:28.911Z,1.50
2019-05-14T12:42:59.228Z,1.50
2019-05-14T12:45:29.657Z,1.77
2019-05-14T12:47:58.475Z,1.77
2019-05-14T12:50:26.557Z,1.90
2019-05-14T12:52:54.802Z,1.97
2019-05-14T12:55:23.031Z,1.80
2019-05-14T12:57:51.291Z,1.80
2019-05-14T13:00:19.633Z,1.83
2019-05-14T13:02:47.816Z,1.90
2019-05-14T13:05:18.385Z,1.83
2019-05-14T13:07:50.800Z,2.07
2019-05-14T13:10:18.575Z,2.00
2019-05-14T13:12:48.151Z,2.07
2019-05-14T13:15:15.873Z,2.00
2019-05-14T13:17:44.114Z,2.00
2019-05-14T13:20:14.157Z,2.20
2019-05-14T13:22:46.323Z,2.20
2019-05-14T13:25:12.443Z,1.90
2019-05-14T13:27:40.675Z,1.97
2019-05-14T13:30:09.390Z,2.30
2019-05-14T13:32:39.436Z,1.90
2019-05-14T13:35:13.167Z,1.90
2019-05-14T13:37:39.846Z,1.87
2019-05-14T13:40:09.165Z,1.70
2019-05-14T13:42:39.932Z,2.00
2019-05-14T13:45:10.147Z,1.70
2019-05-14T13:47:38.672Z,1.80
2019-05-14T13:50:08.471Z,1.73
2019-05-14T13:52:40.389Z,1.87
2019-05-14T13:55:09.702Z,2.10
2019-05-14T13:57:39.919Z,2.00
2019-05-14T14:00:11.921Z,1.90
2019-05-14T14:02:37.309Z,2.20
2019-05-14T14:05:08.558Z,2.20
2019-05-14T14:07:39.567Z,2.40
2019-05-14T14:10:08.920Z,2.63
2019-05-14T14:12:40.326Z,2.53
2019-05-14T14:15:09.551Z,2.67
2019-05-14T14:17:39.067Z,2.50
2019-05-14T14:20:08.306Z,2.80
2019-05-14T14:22:39.501Z,2.57
2019-05-14T14:25:08.873Z,2.50
2019-05-14T14:27:40.497Z,2.70
2019-05-14T14:30:09.166Z,2.90
2019-05-14T14:32:36.633Z,2.70
2019-05-14T14:35:05.453Z,2.50
2019-05-14T14:37:33.695Z,2.83
2019-05-14T14:40:01.917Z,2.70
2019-05-14T14:42:34.982Z,3.00
2019-05-14T14:45:01.019Z,2.80
2019-05-14T14:47:29.387Z,2.87
2019-05-14T14:50:00.321Z,2.90
2019-05-14T14:52:29.178Z,2.80
2019-05-14T14:54:58.991Z,2.90
2019-05-14T14:57:30.245Z,2.77
2019-05-14T14:59:57.366Z,2.70
2019-05-14T15:02:28.549Z,3.10
2019-05-14T15:04:55.457Z,3.00
2019-05-14T15:07:23.695Z,2.80
2019-05-14T15:09:51.927Z,2.63
2019-05-14T15:12:20.171Z,2.70
2019-05-14T15:14:48.851Z,2.87
2019-05-14T15:17:18.664Z,2.70
2019-05-14T15:19:49.739Z,2.17
2019-05-14T15:22:20.330Z,2.40
2019-05-14T15:24:48.775Z,2.63
2019-05-14T15:27:18.761Z,2.43
2019-05-14T15:29:48.712Z,2.53
2019-05-14T15:32:19.370Z,2.73
2019-05-14T15:34:50.260Z,2.87
2019-05-14T15:37:16.255Z,2.80
2019-05-14T15:39:44.477Z,2.90
2019-05-14T15:42:13.768Z,2.80
2019-05-14T15:44:52.127Z,2.57
2019-05-14T15:47:12.336Z,1.90
2019-05-14T15:49:40.559Z,1.50
2019-05-14T15:52:08.743Z,1.57
2019-05-14T15:54:45.791Z,1.40
2019-05-14T15:57:09.001Z,1.17
2019-05-14T15:59:39.059Z,1.30
2019-05-14T16:02:09.374Z,1.47
2019-05-14T16:04:38.849Z,1.40
2019-05-14T16:07:09.265Z,1.00
2019-05-14T16:09:39.481Z,1.33
2019-05-14T16:12:06.294Z,1.30
2019-05-14T16:14:34.525Z,1.37
2019-05-14T16:17:02.774Z,1.00
2019-05-14T16:19:30.973Z,1.13
2019-05-14T16:21:59.154Z,1.40
2019-05-14T16:24:28.536Z,0.97
2019-05-14T16:27:00.014Z,1.27
2019-05-14T16:29:38.198Z,1.37
2019-05-14T16:31:58.188Z,2.87
2019-05-14T16:34:28.571Z,3.03
2019-05-14T16:36:58.437Z,2.50
2019-05-14T16:39:28.348Z,1.80
2019-05-14T16:41:58.256Z,1.47
2019-05-14T16:44:28.325Z,1.00
2019-05-14T16:46:58.474Z,1.50
2019-05-14T16:49:25.883Z,1.00
2019-05-14T16:51:54.108Z,1.10
2019-05-14T16:54:24.378Z,1.00
2019-05-14T16:56:52.593Z,0.97
2019-05-14T16:59:20.757Z,1.10
2019-05-14T17:01:49.270Z,1.27
2019-05-14T17:04:19.101Z,1.00
2019-05-14T17:06:49.331Z,1.07
2019-05-14T17:09:18.723Z,1.00
2019-05-14T17:11:48.242Z,1.00
2019-05-14T17:14:18.384Z,1.27
2019-05-14T17:16:48.904Z,1.20
2019-05-14T17:19:18.639Z,0.97
2019-05-14T17:21:48.573Z,1.03
2019-05-14T17:24:16.332Z,0.80
2019-05-14T17:26:44.563Z,1.33
2019-05-14T17:29:12.807Z,1.30
2019-05-14T17:31:41.031Z,1.10
2019-05-14T17:34:09.268Z,1.27
2019-05-14T17:36:39.003Z,1.40
2019-05-14T17:39:08.644Z,2.03
2019-05-14T17:41:41.657Z,1.20
2019-05-14T17:44:08.924Z,1.13
2019-05-14T17:46:39.271Z,1.70
2019-05-14T17:49:06.727Z,1.10
2019-05-14T17:51:34.959Z,1.60
2019-05-14T17:54:03.207Z,2.30
2019-05-14T17:56:31.425Z,1.00
2019-05-14T17:58:59.677Z,1.00
2019-05-14T18:01:28.980Z,1.00
2019-05-14T18:03:58.453Z,1.00
2019-05-14T18:06:28.621Z,0.83
2019-05-14T18:08:58.334Z,0.90
2019-05-14T18:11:28.407Z,1.10
2019-05-14T18:13:58.958Z,0.90
2019-05-14T18:16:28.548Z,1.40
2019-05-14T18:18:58.255Z,1.13
2019-05-14T18:21:28.543Z,1.10
2019-05-14T18:23:58.535Z,1.10
2019-05-14T18:26:28.870Z,1.10
2019-05-14T18:28:58.074Z,1.00
2019-05-14T18:31:26.401Z,1.33
2019-05-14T18:33:54.606Z,1.00
2019-05-14T18:36:22.774Z,1.10
2019-05-14T18:38:50.998Z,1.10
2019-05-14T18:41:19.482Z,0.70
2019-05-14T18:43:47.810Z,1.00
2019-05-14T18:46:16.045Z,1.20
2019-05-14T18:48:44.591Z,1.33
2019-05-14T18:51:12.881Z,1.13
2019-05-14T18:53:41.121Z,1.10
2019-05-14T18:56:19.809Z,0.97
2019-05-14T18:58:39.305Z,0.97
2019-05-14T19:01:07.610Z,1.00
2019-05-14T19:03:35.942Z,1.00
2019-05-14T19:06:04.227Z,1.10
2019-05-14T19:08:32.521Z,1.00
2019-05-14T19:11:00.763Z,1.40
2019-05-14T19:13:28.981Z,1.13
2019-05-14T19:15:59.162Z,1.40
2019-05-14T19:18:28.705Z,1.20
2019-05-14T19:20:59.139Z,1.20
2019-05-14T19:23:28.957Z,1.17
2019-05-14T19:25:58.949Z,1.20
2019-05-14T19:28:28.243Z,1.00
2019-05-14T19:30:59.400Z,1.00
2019-05-14T19:33:28.805Z,1.00
2019-05-14T19:35:56.694Z,1.23
2019-05-14T19:38:24.932Z,1.27
2019-05-14T19:40:53.234Z,1.10
2019-05-14T19:43:22.267Z,1.10
2019-05-14T19:45:50.472Z,1.20
2019-05-14T19:48:19.011Z,1.13
2019-05-14T19:50:49.044Z,1.70
2019-05-14T19:53:17.276Z,1.30
2019-05-14T19:55:45.496Z,1.37
2019-05-14T19:58:13.738Z,1.00
2019-05-14T20:00:42.045Z,1.07
2019-05-14T20:03:10.222Z,1.30
2019-05-14T20:05:39.408Z,1.10
2019-05-14T20:08:08.717Z,1.27
2019-05-14T20:10:38.748Z,1.30
2019-05-14T20:13:06.963Z,1.50
2019-05-14T20:15:35.156Z,1.33
2019-05-14T20:18:03.395Z,1.40
2019-05-14T20:20:32.703Z,1.43
2019-05-14T20:23:00.950Z,1.57
2019-05-14T20:25:29.173Z,1.47
2019-05-14T20:27:58.785Z,1.40
2019-05-14T20:30:29.211Z,1.20
2019-05-14T20:32:59.287Z,1.63
2019-05-14T20:35:34.302Z,1.60
2019-05-14T20:37:58.587Z,1.40
2019-05-14T20:40:28.508Z,1.40
2019-05-14T20:42:58.753Z,1.30
2019-05-14T20:45:28.712Z,1.30
2019-05-14T20:47:58.432Z,1.20
2019-05-14T20:50:28.490Z,1.30
2019-05-14T20:52:56.133Z,1.40
2019-05-14T20:55:24.431Z,1.30
2019-05-14T20:57:52.735Z,1.40
2019-05-14T21:00:21.078Z,1.30
2019-05-14T21:02:49.382Z,1.50
2019-05-14T21:05:18.796Z,1.80
2019-05-14T21:07:49.369Z,1.30
2019-05-14T21:10:19.144Z,1.53
2019-05-14T21:12:48.810Z,1.33
2019-05-14T21:15:18.260Z,1.50
2019-05-14T21:17:50.178Z,1.60
2019-05-14T21:20:18.475Z,1.30
2019-05-14T21:22:48.490Z,1.40
2019-05-14T21:25:18.447Z,1.40
2019-05-14T21:27:51.248Z,1.27
2019-05-14T21:30:16.498Z,1.20
2019-05-14T21:32:44.757Z,1.30
2019-05-14T21:35:13.380Z,1.13
2019-05-14T21:37:41.626Z,1.20
2019-05-14T21:40:10.147Z,1.20
2019-05-14T21:42:38.799Z,1.07
2019-05-14T21:45:09.708Z,1.20
2019-05-14T21:47:38.799Z,1.67
2019-05-14T21:50:08.939Z,1.20
2019-05-14T21:52:39.350Z,1.20
2019-05-14T21:55:07.970Z,1.27
2019-05-14T21:57:38.209Z,1.40
2019-05-14T22:00:10.758Z,1.30
2019-05-14T22:02:39.096Z,1.37
2019-05-14T22:05:09.485Z,1.33
2019-05-14T22:07:38.945Z,1.30
2019-05-14T22:10:07.564Z,1.40
2019-05-14T22:12:35.814Z,1.50
2019-05-14T22:15:05.038Z,1.20
2019-05-14T22:17:33.274Z,1.40
2019-05-14T22:20:01.807Z,1.40
2019-05-14T22:22:30.812Z,1.40
2019-05-14T22:24:59.206Z,1.53
2019-05-14T22:27:28.164Z,1.43
2019-05-14T22:29:58.516Z,1.23
2019-05-14T22:32:28.477Z,1.20
2019-05-14T22:34:58.457Z,1.60
2019-05-14T22:37:28.040Z,1.07
2019-05-14T22:39:56.170Z,1.40
2019-05-14T22:42:24.450Z,1.13
2019-05-14T22:44:52.698Z,1.30
2019-05-14T22:47:20.959Z,1.50
2019-05-14T22:49:49.210Z,1.73
2019-05-14T22:52:18.893Z,1.23
2019-05-14T22:54:49.032Z,1.53
2019-05-14T22:57:17.226Z,1.57
2019-05-14T22:59:45.466Z,1.33
2019-05-14T23:02:13.718Z,1.27
2019-05-14T23:04:41.952Z,1.23
2019-05-14T23:07:10.215Z,1.40
2019-05-14T23:09:38.876Z,1.40
2019-05-14T23:12:12.091Z,1.33
2019-05-14T23:14:39.102Z,1.37
2019-05-14T23:17:08.040Z,1.50
2019-05-14T23:19:36.556Z,1.30
2019-05-14T23:22:04.829Z,1.40
2019-05-14T23:24:33.066Z,1.17
2019-05-14T23:27:01.335Z,1.60
2019-05-14T23:29:29.578Z,1.47
2019-05-14T23:31:58.765Z,1.30
2019-05-14T23:34:28.494Z,1.40
2019-05-14T23:36:58.540Z,1.33
2019-05-14T23:39:28.695Z,1.20
2019-05-14T23:41:58.315Z,1.30
2019-05-14T23:44:28.753Z,1.10
2019-05-14T23:46:58.818Z,1.50
2019-05-14T23:49:26.710Z,1.23
2019-05-14T23:51:55.048Z,1.30
2019-05-14T23:54:23.284Z,1.00
2019-05-14T23:56:51.566Z,1.20
2019-05-14T23:59:19.815Z,1.33
